CheckWX is a tool to help pilots better visualize weather data.  It is not intended as a substitute for an official pre-flight weather briefing.

12:03:57 UTC

KPOU TAF
Hudson Valley Regional Airport
Poughkeepsie, New York, USA
KPOU 161127Z 1612/1712 00000KT P6SM SCT027 TEMPO 1612/1614 BKN027 FM161400 14005KT P6SM FEW030 BKN100 FM161600 14009KT P6SM VCSH BKN040 OVC070 FM162000 12009KT 3SM RA BR OVC025 FM162200 11008KT 2SM RA BR OVC015 WS020/15040KT FM170000 08009KT 1SM +RA BR OVC009 WS020/15040KT FM170600 28018G30KT 6SM -SHRA BR OVC035

Oct-16@
12:00 UTC

Oct-16 @ 12:00 UTC

Oct-16@
14:00 UTC

Oct-16 @ 14:00 UTC

KPOU 161127Z 1612/1712 00000KT P6SM SCT027
Cloud Levels
  • Scattered at 2,700' AGL

Oct-16@
12:00 UTC

Oct-16 @ 12:00 UTC

Oct-16@
14:00 UTC

Oct-16 @ 14:00 UTC

TEMPO 1612/1614 BKN027

Temporary

Temporary Changes expected for less than half the time period

Cloud Levels
  • Broken at 2,700' AGL

Oct-16@
14:00 UTC

Oct-16 @ 14:00 UTC

Oct-16@
16:00 UTC

Oct-16 @ 16:00 UTC

FM161400 14005KT P6SM FEW030 BKN100

From

From Standard forecast or significant change

Wind
  • 140° at 5 KTS
Cloud Levels
  • Few at 3,000' AGL
  • Broken at 10,000' AGL

Oct-16@
16:00 UTC

Oct-16 @ 16:00 UTC

Oct-16@
20:00 UTC

Oct-16 @ 20:00 UTC

FM161600 14009KT P6SM VCSH BKN040 OVC070

From

From Standard forecast or significant change

Wind
  • 140° at 9 KTS
Cloud Levels
  • Broken at 4,000' AGL
  • Overcast at 7,000' AGL

Oct-16@
20:00 UTC

Oct-16 @ 20:00 UTC

Oct-16@
22:00 UTC

Oct-16 @ 22:00 UTC

FM162000 12009KT 3SM RA BR OVC025

From

From Standard forecast or significant change

Wind
  • 120° at 9 KTS
Conditions
Rain, Mist
Cloud Levels
  • Overcast at 2,500' AGL

Oct-16@
22:00 UTC

Oct-16 @ 22:00 UTC

Oct-17@
00:00 UTC

Oct-17 @ 00:00 UTC

FM162200 11008KT 2SM RA BR OVC015 WS020/15040KT

From

From Standard forecast or significant change

Wind
  • 110° at 8 KTS
Conditions
Rain, Mist
Cloud Levels
  • Overcast at 1,500' AGL

Oct-17@
00:00 UTC

Oct-17 @ 00:00 UTC

Oct-17@
06:00 UTC

Oct-17 @ 06:00 UTC

FM170000 08009KT 1SM +RA BR OVC009 WS020/15040KT

From

From Standard forecast or significant change

Wind
  • 080° at 9 KTS
Conditions
Heavy Rain, Mist
Cloud Levels
  • Overcast at 900' AGL

Oct-17@
06:00 UTC

Oct-17 @ 06:00 UTC

Oct-17@
12:00 UTC

Oct-17 @ 12:00 UTC

FM170600 28018G30KT 6SM -SHRA BR OVC035

From

From Standard forecast or significant change

Wind
  • 280° at 18 KTS
  • {Gusting to 30 KTS
Conditions
Light Rain, Mist
Cloud Levels
  • Overcast at 3,500' AGL